Time;durP1;ratioP1;P1;durP2;ratioP2;P2;SDS_P1;SDS_P2;PMS_P1;PMS_P2;Temp;Humidity;BMP_temperature;BMP_pressure;BME280_temperature;BME280_humidity;BME280_pressure;Samples;Min_cycle;Max_cycle;Signal;HPM_P1;HPM_P2
2021/12/24 00:01:22;;;;;;;3.07;1.10;;;7.20;99.90;;;;;;4981685;28;20031;-88
2021/12/24 00:03:48;;;;;;;4.33;1.47;;;7.20;99.90;;;;;;4965353;28;20054;-88
2021/12/24 00:06:14;;;;;;;3.30;1.30;;;7.20;99.90;;;;;;4985897;28;20045;-88
2021/12/24 00:08:40;;;;;;;2.53;1.20;;;7.20;99.90;;;;;;4968565;28;20581;-88
2021/12/24 00:11:07;;;;;;;3.80;1.70;;;7.20;99.90;;;;;;4985180;28;20051;-87
2021/12/24 00:13:41;;;;;;;4.83;1.20;;;7.10;99.90;;;;;;4968406;28;20030;-88
2021/12/24 00:18:49;;;;;;;3.70;1.23;;;7.10;99.90;;;;;;4985606;28;20041;-88
2021/12/24 00:37:32;;;;;;;4.33;1.20;;;7.00;99.90;;;;;;4986197;28;20023;-88
2021/12/24 00:40:15;;;;;;;3.53;1.10;;;7.10;99.90;;;;;;4987637;28;20399;-88
2021/12/24 00:42:44;;;;;;;;;;;7.20;99.90;;;;;;4987168;28;20019;-88
2021/12/24 00:45:10;;;;;;;1.83;0.83;;;7.10;99.90;;;;;;4967750;28;19905;-88
2021/12/24 00:47:36;;;;;;;2.47;0.87;;;7.20;99.90;;;;;;4968488;28;20102;-87
2021/12/24 00:50:07;;;;;;;3.27;1.13;;;7.10;99.90;;;;;;4967572;28;20030;-89
2021/12/24 00:52:48;;;;;;;2.63;1.08;;;7.10;99.90;;;;;;4963533;29;20027;-88
2021/12/24 00:55:26;;;;;;;2.63;1.10;;;7.00;99.90;;;;;;4965334;28;20748;-88
2021/12/24 00:57:56;;;;;;;3.43;0.80;;;6.90;99.90;;;;;;4965601;29;20032;-88
2021/12/24 01:00:25;;;;;;;2.63;1.43;;;7.10;99.90;;;;;;4965319;28;20027;-87
2021/12/24 01:02:53;;;;;;;3.33;1.17;;;7.20;99.90;;;;;;4967010;28;20031;-89
2021/12/24 01:05:22;;;;;;;3.13;1.10;;;7.10;99.90;;;;;;4967522;28;20059;-88
2021/12/24 01:07:49;;;;;;;2.20;1.00;;;7.10;99.90;;;;;;4967508;28;20023;-88
2021/12/24 01:10:22;;;;;;;5.90;1.17;;;7.10;99.90;;;;;;4964392;28;20629;-88
2021/12/24 01:12:50;;;;;;;3.70;1.20;;;7.10;99.90;;;;;;4964237;29;20030;-88
2021/12/24 01:15:18;;;;;;;2.90;0.97;;;7.30;99.90;;;;;;4964698;29;20051;-88
2021/12/24 01:18:03;;;;;;;1.40;0.60;;;7.40;99.90;;;;;;4965570;29;20049;-88
2021/12/24 01:25:52;;;;;;;1.80;0.70;;;7.40;99.90;;;;;;4984981;28;20085;-88
2021/12/24 01:44:28;;;;;;;2.10;0.90;;;7.60;99.90;;;;;;4985147;28;20061;-87
2021/12/24 01:46:59;;;;;;;2.60;0.90;;;7.80;99.90;;;;;;4984599;28;20059;-88
2021/12/24 01:49:25;;;;;;;2.55;1.08;;;7.80;99.90;;;;;;4985065;28;20030;-88
2021/12/24 01:51:52;;;;;;;4.10;1.50;;;7.70;99.90;;;;;;4967836;28;20023;-88
2021/12/24 01:54:19;;;;;;;1.47;0.67;;;7.80;99.90;;;;;;4967300;28;20030;-89
2021/12/24 01:56:48;;;;;;;2.10;0.73;;;7.80;99.90;;;;;;4966984;28;20061;-88
2021/12/24 01:59:16;;;;;;;3.63;0.80;;;7.90;99.90;;;;;;4968054;28;20082;-89
2021/12/24 02:01:43;;;;;;;3.20;1.27;;;7.90;99.90;;;;;;4967806;28;20023;-87
2021/12/24 02:04:11;;;;;;;2.37;0.97;;;7.90;99.90;;;;;;4966696;28;20030;-87
2021/12/24 02:06:38;;;;;;;3.93;0.90;;;7.80;99.90;;;;;;4985779;28;20054;-87
2021/12/24 02:09:05;;;;;;;5.33;1.13;;;7.90;99.90;;;;;;4971258;28;20031;-88
2021/12/24 02:11:37;;;;;;;3.03;0.73;;;7.90;99.90;;;;;;4971210;28;20034;-88
2021/12/24 02:14:15;;;;;;;3.58;0.73;;;7.90;99.90;;;;;;4970210;28;20247;-88
2021/12/24 02:29:57;;;;;;;2.30;0.80;;;7.50;99.90;;;;;;4987738;28;20112;-88
2021/12/24 02:32:23;;;;;;;2.23;0.67;;;7.60;99.90;;;;;;4983609;28;20051;-89
2021/12/24 02:34:51;;;;;;;3.67;1.03;;;7.50;99.90;;;;;;4968487;29;20034;-88
2021/12/24 02:37:17;;;;;;;2.83;0.80;;;7.50;99.90;;;;;;4970352;29;20079;-87
2021/12/24 02:39:43;;;;;;;1.73;0.73;;;7.50;99.90;;;;;;4978636;28;20038;-88
2021/12/24 02:42:16;;;;;;;1.57;0.70;;;7.70;99.90;;;;;;4972405;28;20030;-87
2021/12/24 02:44:43;;;;;;;2.20;0.70;;;7.50;99.90;;;;;;4987972;28;20034;-88
2021/12/24 02:47:36;;;;;;;3.20;0.90;;;7.50;99.90;;;;;;4969708;28;20088;-88
2021/12/24 02:55:13;;;;;;;2.47;0.87;;;7.50;99.90;;;;;;4988725;28;20115;-88
2021/12/24 02:57:40;;;;;;;1.80;0.60;;;7.40;99.90;;;;;;4988690;28;20542;-88
2021/12/24 03:00:19;;;;;;;3.17;0.80;;;7.40;99.90;;;;;;4969170;28;20046;-88
2021/12/24 03:02:48;;;;;;;4.40;0.90;;;7.30;99.90;;;;;;4970262;28;20026;-88
2021/12/24 03:05:18;;;;;;;1.93;0.83;;;7.30;99.90;;;;;;4986222;28;20409;-88
2021/12/24 03:07:45;;;;;;;3.67;1.00;;;7.30;99.90;;;;;;4969435;28;20034;-88
2021/12/24 03:10:15;;;;;;;1.77;0.73;;;7.30;99.90;;;;;;4968026;28;20030;-88
2021/12/24 03:12:45;;;;;;;3.43;0.73;;;7.30;99.90;;;;;;4983867;28;20081;-89
2021/12/24 03:15:16;;;;;;;1.67;0.67;;;7.30;99.90;;;;;;4950390;28;20047;-89
2021/12/24 03:17:50;;;;;;;5.47;0.80;;;7.30;99.90;;;;;;4966126;28;20027;-88
2021/12/24 03:20:16;;;;;;;3.20;1.10;;;7.30;99.90;;;;;;4965950;28;20047;-88
2021/12/24 03:25:15;;;;;;;2.38;1.02;;;7.30;99.90;;;;;;4982069;28;20043;-88
2021/12/24 03:27:41;;;;;;;2.97;0.70;;;7.30;99.90;;;;;;4966024;28;20049;-87
2021/12/24 03:30:15;;;;;;;1.90;0.70;;;7.30;99.90;;;;;;4985713;28;20102;-88
2021/12/24 03:32:46;;;;;;;2.63;1.07;;;7.30;99.90;;;;;;4967775;28;20031;-88
2021/12/24 03:35:12;;;;;;;2.80;0.80;;;7.30;99.90;;;;;;4964846;29;20047;-88
2021/12/24 03:37:40;;;;;;;2.33;0.70;;;7.40;99.90;;;;;;4963649;29;20027;-88
2021/12/24 03:40:06;;;;;;;2.60;0.83;;;7.20;99.90;;;;;;4963896;28;20174;-88
2021/12/24 03:42:36;;;;;;;2.90;0.80;;;7.20;99.90;;;;;;4965699;28;20051;-88
2021/12/24 03:45:18;;;;;;;2.30;0.77;;;7.20;99.90;;;;;;4968458;28;20027;-88
2021/12/24 03:47:51;;;;;;;1.85;0.60;;;7.20;99.90;;;;;;4968714;28;20026;-88
2021/12/24 03:50:17;;;;;;;3.13;0.90;;;7.20;99.90;;;;;;4974109;28;20045;-88
2021/12/24 03:53:05;;;;;;;1.43;0.60;;;7.10;99.90;;;;;;4971086;28;20019;-88
2021/12/24 03:55:30;;;;;;;3.10;1.03;;;7.20;99.90;;;;;;4947832;28;20051;-89
2021/12/24 03:57:56;;;;;;;4.63;0.80;;;7.10;99.90;;;;;;4969498;28;20062;-88
2021/12/24 04:00:33;;;;;;;2.70;1.07;;;7.10;99.90;;;;;;4971052;28;20491;-88
2021/12/24 04:02:59;;;;;;;2.63;0.87;;;7.00;99.90;;;;;;4970463;28;20061;-87
2021/12/24 04:05:28;;;;;;;2.40;0.87;;;7.00;99.90;;;;;;4968189;28;20030;-88
2021/12/24 04:07:56;;;;;;;1.90;0.60;;;7.00;99.90;;;;;;4968710;28;20038;-88
2021/12/24 04:10:35;;;;;;;1.97;0.80;;;6.80;99.90;;;;;;4984852;28;20420;-88
2021/12/24 04:13:03;;;;;;;2.13;0.83;;;6.90;99.90;;;;;;4968713;28;20106;-89
2021/12/24 04:15:29;;;;;;;2.90;1.00;;;6.90;99.90;;;;;;4964546;28;20399;-88
2021/12/24 04:17:55;;;;;;;5.23;0.83;;;6.80;99.90;;;;;;4966083;29;20031;-87
2021/12/24 07:19:59;;;;;;;2.03;0.90;;;7.50;99.90;;;;;;4982696;28;20191;-90
2021/12/24 07:26:07;;;;;;;2.97;1.00;;;7.50;99.90;;;;;;4993580;28;20061;-90
2021/12/24 07:28:55;;;;;;;;;;;;;;;;;;;;;
2021/12/24 07:31:47;;;;;;;2.83;1.13;;;7.40;99.90;;;;;;4991388;28;20059;-90
2021/12/24 07:38:08;;;;;;;2.83;0.97;;;7.40;99.90;;;;;;4965986;28;20026;-91
2021/12/24 07:40:57;;;;;;;2.13;0.80;;;7.30;99.90;;;;;;5009138;28;20059;-90
2021/12/24 07:44:22;;;;;;;3.17;0.90;;;7.40;99.90;;;;;;4995653;28;20058;-91
2021/12/24 07:47:15;;;;;;;2.40;1.10;;;7.40;99.90;;;;;;5005114;28;20042;-90
2021/12/24 07:51:59;;;;;;;7.45;1.00;;;7.30;99.90;;;;;;4981918;28;20054;-90
2021/12/24 07:54:23;;;;;;;3.07;0.87;;;7.30;99.90;;;;;;4982427;28;20516;-89
2021/12/24 07:56:59;;;;;;;2.07;0.90;;;7.30;99.90;;;;;;4990037;28;20039;-90
2021/12/24 07:59:44;;;;;;;2.77;0.87;;;7.20;99.90;;;;;;5000796;28;20061;-89
2021/12/24 08:02:48;;;;;;;;;;;;;;;;;;;;;
2021/12/24 08:05:41;;;;;;;3.03;1.00;;;7.20;99.90;;;;;;4986653;28;20061;-89
2021/12/24 08:08:24;;;;;;;1.90;0.80;;;7.20;99.90;;;;;;4995794;28;20043;-89
2021/12/24 08:10:58;;;;;;;2.37;0.90;;;7.20;99.90;;;;;;5001207;28;20023;-89
2021/12/24 08:13:27;;;;;;;4.03;1.37;;;7.20;99.90;;;;;;4990186;28;20019;-89
2021/12/24 08:16:20;;;;;;;4.03;1.20;;;7.20;99.90;;;;;;4989400;28;20031;-88
2021/12/24 08:18:59;;;;;;;1.95;0.88;;;7.30;99.90;;;;;;4987172;28;20030;-88
2021/12/24 08:21:37;;;;;;;3.47;0.90;;;7.30;99.90;;;;;;5004248;28;20069;-88
2021/12/24 08:24:15;;;;;;;2.40;0.93;;;7.30;99.90;;;;;;4985236;28;20058;-88
2021/12/24 08:26:44;;;;;;;3.87;1.27;;;7.30;99.90;;;;;;4990284;28;20049;-88
2021/12/24 08:29:11;;;;;;;2.33;1.00;;;7.40;99.90;;;;;;4988253;28;20047;-89
2021/12/24 08:31:45;;;;;;;2.70;0.97;;;7.40;99.90;;;;;;4987706;28;20062;-88
2021/12/24 08:34:26;;;;;;;2.93;1.03;;;7.40;99.90;;;;;;4986133;28;20038;-89
2021/12/24 08:36:58;;;;;;;2.60;0.63;;;7.40;99.90;;;;;;4990373;28;20094;-89
2021/12/24 08:39:28;;;;;;;3.17;0.80;;;7.40;99.90;;;;;;4986067;28;20090;-89
2021/12/24 08:41:54;;;;;;;2.33;0.77;;;7.40;99.90;;;;;;4990636;28;20041;-90
2021/12/24 08:44:26;;;;;;;3.70;1.17;;;7.50;99.90;;;;;;4989674;28;20015;-90
2021/12/24 08:46:54;;;;;;;2.42;0.82;;;7.40;99.90;;;;;;4988624;28;20038;-90
2021/12/24 08:49:27;;;;;;;3.90;1.47;;;7.40;99.90;;;;;;4989286;28;20226;-90
2021/12/24 08:52:04;;;;;;;2.70;0.83;;;7.40;99.90;;;;;;4986163;28;20019;-89
2021/12/24 08:54:30;;;;;;;2.57;1.00;;;7.40;99.90;;;;;;4985401;28;20054;-88
2021/12/24 08:57:00;;;;;;;2.00;0.70;;;7.40;99.90;;;;;;4989240;28;20037;-89
2021/12/24 08:59:26;;;;;;;4.73;1.03;;;7.40;99.90;;;;;;4988399;28;20027;-90
2021/12/24 09:01:52;;;;;;;2.80;1.10;;;7.50;99.90;;;;;;4979870;28;20039;-87
2021/12/24 09:04:19;;;;;;;1.93;0.70;;;7.40;99.90;;;;;;4987237;28;20018;-89
2021/12/24 09:06:45;;;;;;;2.33;1.00;;;7.30;99.90;;;;;;4988845;28;20042;-89
2021/12/24 09:09:11;;;;;;;4.30;1.03;;;7.30;99.90;;;;;;4984209;28;20038;-89
2021/12/24 09:11:42;;;;;;;2.60;0.80;;;7.40;99.90;;;;;;4988181;28;19999;-89
2021/12/24 09:14:09;;;;;;;3.25;0.98;;;7.40;99.90;;;;;;4991691;28;20019;-87
2021/12/24 09:16:37;;;;;;;3.47;1.10;;;7.50;99.90;;;;;;4984117;28;20038;-89
2021/12/24 09:19:08;;;;;;;2.63;1.13;;;7.50;99.90;;;;;;4980427;28;20059;-88
2021/12/24 09:21:36;;;;;;;3.13;1.23;;;7.40;99.90;;;;;;4981882;28;20019;-89
2021/12/24 09:24:07;;;;;;;2.30;0.90;;;7.40;99.90;;;;;;4976758;29;20123;-89
2021/12/24 09:26:33;;;;;;;2.83;1.00;;;7.40;99.90;;;;;;4979971;28;20018;-89
2021/12/24 09:29:00;;;;;;;4.23;2.03;;;7.40;99.90;;;;;;4994708;28;20035;-89
2021/12/24 09:31:27;;;;;;;3.97;2.13;;;7.50;99.90;;;;;;5006412;28;20030;-88
2021/12/24 09:33:57;;;;;;;3.50;1.63;;;7.50;99.90;;;;;;4995342;28;20038;-88
2021/12/24 09:36:28;;;;;;;4.47;1.30;;;7.40;99.90;;;;;;4991445;28;20027;-88
2021/12/24 09:38:58;;;;;;;5.10;1.40;;;7.40;99.90;;;;;;4993143;28;20097;-87
2021/12/24 09:41:24;;;;;;;3.00;1.20;;;7.40;99.90;;;;;;4985848;28;20488;-87
2021/12/24 09:43:52;;;;;;;2.33;1.10;;;7.40;99.90;;;;;;4990403;28;20043;-87
2021/12/24 09:46:18;;;;;;;2.77;1.07;;;7.30;99.90;;;;;;4984530;28;20031;-88
2021/12/24 09:48:45;;;;;;;2.90;1.07;;;7.20;99.90;;;;;;4989535;28;20094;-88
2021/12/24 09:51:11;;;;;;;5.57;1.80;;;7.20;99.90;;;;;;4989025;28;20023;-88
2021/12/24 09:53:40;;;;;;;5.17;1.50;;;7.20;99.90;;;;;;4990846;28;20030;-89
2021/12/24 09:56:25;;;;;;;2.37;0.97;;;7.20;99.90;;;;;;4993369;28;20040;-89
2021/12/24 09:59:12;;;;;;;4.07;1.70;;;7.30;99.90;;;;;;4994462;28;20050;-90
2021/12/24 10:02:18;;;;;;;;;;;;;;;;;;;;;
2021/12/24 10:13:23;;;;;;;2.87;1.27;;;7.20;99.90;;;;;;5141346;23;20058;-89
2021/12/24 10:16:48;;;;;;;3.43;0.90;;;7.20;99.90;;;;;;4975480;29;20027;-89
2021/12/24 10:19:56;;;;;;;;;;;;;;;;;;;;;
2021/12/24 10:22:26;;;;;;;4.90;1.17;;;7.20;99.90;;;;;;5032934;23;20115;-87
2021/12/24 10:25:00;;;;;;;2.53;1.20;;;7.10;99.90;;;;;;5004905;28;20193;-87
2021/12/24 10:27:34;;;;;;;2.30;1.10;;;7.20;99.90;;;;;;4990878;28;20019;-87
2021/12/24 10:30:26;;;;;;;3.33;1.27;;;7.40;99.90;;;;;;5001984;28;20050;-88
2021/12/24 10:32:57;;;;;;;5.13;1.20;;;7.30;99.90;;;;;;4950252;29;20028;-87
2021/12/24 10:35:28;;;;;;;3.73;1.50;;;7.30;99.90;;;;;;4950808;29;20032;-87
2021/12/24 10:38:17;;;;;;;3.37;1.40;;;7.20;99.90;;;;;;4955064;29;20142;-87
2021/12/24 10:40:54;;;;;;;3.23;1.50;;;7.20;99.90;;;;;;4970127;28;20078;-86
2021/12/24 10:43:43;;;;;;;3.67;1.67;;;7.30;99.90;;;;;;4987010;28;20065;-88
2021/12/24 10:46:33;;;;;;;3.23;1.20;;;7.30;99.90;;;;;;4968375;28;20027;-88
2021/12/24 10:49:17;;;;;;;2.80;1.20;;;7.40;99.90;;;;;;4966061;28;20027;-88
2021/12/24 10:55:05;;;;;;;3.90;1.30;;;7.30;99.90;;;;;;4951917;29;20027;-87
2021/12/24 10:57:39;;;;;;;3.87;1.40;;;7.30;99.90;;;;;;4966266;29;20055;-87
2021/12/24 11:00:11;;;;;;;4.70;1.23;;;7.30;99.90;;;;;;4956643;28;20046;-88
2021/12/24 11:02:37;;;;;;;4.05;1.75;;;7.30;99.90;;;;;;4970041;29;20027;-87
2021/12/24 11:05:36;;;;;;;4.97;1.20;;;7.10;99.90;;;;;;4966910;28;20050;-88
2021/12/24 11:08:33;;;;;;;2.60;1.00;;;7.30;99.90;;;;;;4967582;29;20146;-87
2021/12/24 11:11:06;;;;;;;2.37;1.13;;;7.20;99.90;;;;;;4968133;28;20050;-87
2021/12/24 11:13:47;;;;;;;2.77;1.20;;;7.20;99.90;;;;;;4953863;29;20030;-88
2021/12/24 11:16:21;;;;;;;3.80;1.63;;;7.20;99.90;;;;;;4954875;29;20103;-88
2021/12/24 11:19:01;;;;;;;3.67;2.10;;;7.40;99.90;;;;;;4959203;29;20027;-88
2021/12/24 11:21:32;;;;;;;3.93;1.60;;;7.30;99.90;;;;;;4969702;28;20058;-88
2021/12/24 11:24:00;;;;;;;2.33;1.30;;;7.30;99.90;;;;;;4969376;28;20015;-87
2021/12/24 11:26:28;;;;;;;2.57;1.07;;;7.20;99.90;;;;;;4987268;28;20039;-88
2021/12/24 11:28:56;;;;;;;4.80;1.20;;;7.40;99.90;;;;;;4967296;29;20070;-88
2021/12/24 11:31:25;;;;;;;3.40;0.60;;;7.30;99.90;;;;;;4981660;28;20102;-88
2021/12/24 11:33:52;;;;;;;2.97;0.93;;;7.30;99.90;;;;;;4980264;28;20027;-88
2021/12/24 11:36:21;;;;;;;3.10;0.93;;;7.30;99.90;;;;;;4963214;28;20089;-87
2021/12/24 11:38:49;;;;;;;3.30;1.07;;;7.30;99.90;;;;;;4961093;28;20019;-89
2021/12/24 11:41:18;;;;;;;3.07;1.00;;;7.30;99.90;;;;;;4963479;28;20027;-88
2021/12/24 11:43:51;;;;;;;3.23;1.13;;;7.30;99.90;;;;;;4966466;28;20023;-89
2021/12/24 11:46:20;;;;;;;3.57;1.10;;;7.30;99.90;;;;;;4979340;28;20094;-87
2021/12/24 11:48:54;;;;;;;3.60;1.00;;;7.30;99.90;;;;;;4964085;28;20035;-88
2021/12/24 11:51:33;;;;;;;2.13;0.90;;;7.30;99.90;;;;;;4980450;28;20054;-88
2021/12/24 11:54:05;;;;;;;3.57;1.20;;;7.40;99.90;;;;;;4962341;29;20067;-88
2021/12/24 11:56:46;;;;;;;4.20;0.90;;;7.40;99.90;;;;;;4977769;28;20032;-88
2021/12/24 11:59:12;;;;;;;2.87;0.93;;;7.40;99.90;;;;;;4980792;28;20035;-88
2021/12/24 12:01:45;;;;;;;2.83;1.00;;;7.50;99.90;;;;;;4980173;28;20032;-88
2021/12/24 12:04:13;;;;;;;;;;;7.50;99.90;;;;;;4965182;28;20048;-88
2021/12/24 12:06:39;;;;;;;2.47;1.10;;;7.40;99.90;;;;;;4964985;28;19918;-88
2021/12/24 12:09:08;;;;;;;3.13;1.30;;;7.50;99.90;;;;;;4963254;28;20407;-88
2021/12/24 12:11:36;;;;;;;3.93;1.20;;;7.40;99.90;;;;;;4962650;28;20027;-88
2021/12/24 12:14:21;;;;;;;3.70;0.80;;;7.50;99.90;;;;;;4962420;28;20372;-88
2021/12/24 12:16:50;;;;;;;4.67;0.90;;;7.50;99.90;;;;;;4978910;28;20046;-87
2021/12/24 12:25:02;;;;;;;3.53;0.80;;;7.60;99.90;;;;;;4961564;28;20039;-88
2021/12/24 12:27:33;;;;;;;1.57;0.70;;;7.60;99.90;;;;;;4978453;28;20035;-88
2021/12/24 12:30:42;;;;;;;4.13;1.07;;;7.70;99.90;;;;;;4962484;28;20412;-88
2021/12/24 12:33:32;;;;;;;1.53;0.70;;;7.70;99.90;;;;;;4960301;28;20023;-89
2021/12/24 12:36:04;;;;;;;1.57;0.80;;;7.70;99.90;;;;;;4963740;28;20063;-88
2021/12/24 12:38:44;;;;;;;1.58;0.70;;;7.80;99.90;;;;;;4973763;28;20042;-88
2021/12/24 12:41:35;;;;;;;4.80;1.03;;;7.70;99.90;;;;;;4962725;28;20027;-88
2021/12/24 12:44:08;;;;;;;4.50;0.80;;;7.80;99.90;;;;;;4964642;28;20051;-88
2021/12/24 12:46:50;;;;;;;1.93;0.60;;;7.80;99.90;;;;;;4962121;28;20031;-88
2021/12/24 12:49:33;;;;;;;2.47;0.47;;;7.90;99.90;;;;;;4964666;28;20023;-88
2021/12/24 12:52:03;;;;;;;2.27;0.80;;;8.10;99.90;;;;;;4962514;28;20411;-89
2021/12/24 12:55:27;;;;;;;2.60;0.97;;;7.90;99.90;;;;;;4969337;28;20142;-88
2021/12/24 12:58:22;;;;;;;2.20;1.07;;;7.90;99.90;;;;;;4963539;28;20031;-89
2021/12/24 13:01:11;;;;;;;4.97;1.10;;;7.90;99.90;;;;;;4955535;28;20039;-88
2021/12/24 13:04:20;;;;;;;2.00;0.67;;;7.90;99.90;;;;;;4968764;28;20051;-88
2021/12/24 13:06:51;;;;;;;2.17;0.70;;;8.00;99.90;;;;;;4954837;28;20404;-89
2021/12/24 13:09:32;;;;;;;1.37;0.40;;;7.90;99.90;;;;;;4951601;28;20035;-87
2021/12/24 13:12:17;;;;;;;1.27;0.60;;;8.00;99.90;;;;;;4954459;28;20034;-88
2021/12/24 13:14:43;;;;;;;1.33;0.40;;;8.00;99.90;;;;;;4951902;28;20033;-88
2021/12/24 13:22:51;;;;;;;0.77;0.37;;;8.10;99.90;;;;;;4948554;28;20035;-88
2021/12/24 13:25:27;;;;;;;1.40;0.47;;;8.10;99.90;;;;;;4897796;29;20064;-87
2021/12/24 13:28:04;;;;;;;0.70;0.30;;;8.00;99.90;;;;;;4950351;28;20381;-87
2021/12/24 13:30:35;;;;;;;2.00;0.47;;;8.00;99.90;;;;;;4951061;28;20031;-88
2021/12/24 13:33:07;;;;;;;1.40;0.53;;;8.00;99.90;;;;;;4952883;28;20078;-88
2021/12/24 13:35:48;;;;;;;1.52;0.40;;;8.00;99.90;;;;;;4954412;28;20027;-88
2021/12/24 13:38:24;;;;;;;1.23;0.40;;;8.00;99.90;;;;;;4953657;29;20031;-87
2021/12/24 13:41:04;;;;;;;1.43;0.40;;;8.10;99.90;;;;;;4969930;28;20094;-88
2021/12/24 13:43:48;;;;;;;0.80;0.40;;;8.00;99.90;;;;;;4953382;29;20030;-89
2021/12/24 13:46:35;;;;;;;1.27;0.47;;;8.00;99.90;;;;;;4949816;28;20467;-89
2021/12/24 13:54:34;;;;;;;2.60;0.90;;;8.00;99.90;;;;;;4955645;28;20063;-88
2021/12/24 13:57:06;;;;;;;1.88;0.68;;;8.00;99.90;;;;;;4958785;28;20479;-88
2021/12/24 13:59:34;;;;;;;;;;;7.90;99.90;;;;;;4959495;28;20027;-88
2021/12/24 14:02:07;;;;;;;3.87;1.47;;;8.00;99.90;;;;;;4956567;28;19965;-89
2021/12/24 14:04:38;;;;;;;6.73;1.40;;;7.90;99.90;;;;;;4956835;28;20122;-88
2021/12/24 14:07:05;;;;;;;4.03;0.50;;;7.90;99.90;;;;;;4957540;28;20070;-87
2021/12/24 14:09:33;;;;;;;1.90;0.50;;;7.90;99.90;;;;;;4960010;28;20432;-87
2021/12/24 14:12:01;;;;;;;1.70;0.50;;;8.00;99.90;;;;;;4957895;28;20019;-89
2021/12/24 14:14:50;;;;;;;1.43;0.43;;;7.90;99.90;;;;;;4955768;28;20031;-87
2021/12/24 14:17:49;;;;;;;6.80;2.27;;;8.00;99.90;;;;;;4952067;28;20034;-89
2021/12/24 14:52:03;;;;;;;1.90;0.73;;;8.00;99.90;;;;;;4966182;28;20114;-89
2021/12/24 14:54:35;;;;;;;1.90;0.50;;;8.00;99.90;;;;;;4974753;28;20430;-89
2021/12/24 14:57:11;;;;;;;1.57;0.50;;;7.90;99.90;;;;;;4957596;28;20030;-89
2021/12/24 14:59:48;;;;;;;3.73;0.50;;;7.90;99.90;;;;;;4944152;28;20526;-89
2021/12/24 15:02:27;;;;;;;1.90;0.70;;;8.00;99.90;;;;;;4969766;28;20031;-89
2021/12/24 15:05:11;;;;;;;2.03;0.60;;;8.00;99.90;;;;;;4955140;28;20030;-90
2021/12/24 15:07:40;;;;;;;1.10;0.40;;;8.00;99.90;;;;;;4957632;28;20023;-89
2021/12/24 15:10:19;;;;;;;1.67;0.50;;;8.00;99.90;;;;;;4966850;28;20047;-89
2021/12/24 15:12:58;;;;;;;1.90;0.63;;;7.80;99.90;;;;;;4957491;28;20031;-89
2021/12/24 15:15:24;;;;;;;1.73;0.33;;;7.90;99.90;;;;;;4973620;28;20046;-88
2021/12/24 15:17:50;;;;;;;2.90;0.60;;;7.90;99.90;;;;;;4974576;28;20046;-88
2021/12/24 15:20:22;;;;;;;1.73;0.50;;;8.00;99.90;;;;;;4978579;28;20027;-88
2021/12/24 15:22:49;;;;;;;1.47;0.50;;;7.90;99.90;;;;;;4959466;28;20026;-88
2021/12/24 15:25:15;;;;;;;1.17;0.57;;;7.90;99.90;;;;;;4975294;28;20026;-89
2021/12/24 15:27:47;;;;;;;1.80;0.50;;;8.00;99.90;;;;;;4974389;28;20034;-88
2021/12/24 15:30:15;;;;;;;1.45;0.50;;;7.90;99.90;;;;;;4957672;28;20109;-88
2021/12/24 15:32:41;;;;;;;2.30;0.53;;;7.90;99.90;;;;;;4956869;28;20030;-89
2021/12/24 15:35:37;;;;;;;1.60;0.40;;;7.90;99.90;;;;;;4975756;28;20082;-88
2021/12/24 15:38:04;;;;;;;1.80;0.30;;;7.90;99.90;;;;;;4974916;28;20095;-89
2021/12/24 15:40:38;;;;;;;1.77;0.50;;;7.90;99.90;;;;;;4970550;28;20067;-89
2021/12/24 15:43:10;;;;;;;2.47;0.50;;;7.80;99.90;;;;;;4970647;28;20087;-89
2021/12/24 15:45:42;;;;;;;1.67;0.60;;;7.90;99.90;;;;;;4952204;28;20538;-88
2021/12/24 15:48:24;;;;;;;;;;;7.90;99.90;;;;;;4968454;28;20039;-88
2021/12/24 15:51:05;;;;;;;2.03;0.40;;;7.90;99.90;;;;;;4996904;23;19929;-89
2021/12/24 15:53:37;;;;;;;0.98;0.40;;;8.00;99.90;;;;;;4956686;28;20035;-89
2021/12/24 15:56:15;;;;;;;1.55;0.40;;;8.10;99.90;;;;;;4954693;29;20032;-89
2021/12/24 15:58:46;;;;;;;1.13;0.37;;;7.90;99.90;;;;;;4938612;29;20034;-88
2021/12/24 16:01:17;;;;;;;1.50;0.40;;;7.90;99.90;;;;;;4935174;29;20027;-88
2021/12/24 16:03:45;;;;;;;5.33;1.70;;;7.90;99.90;;;;;;4945475;29;20094;-89
2021/12/24 16:06:23;;;;;;;1.67;0.70;;;7.70;99.90;;;;;;4956055;29;20023;-88
2021/12/24 16:08:49;;;;;;;1.03;0.50;;;7.90;99.90;;;;;;4945625;28;20039;-89
2021/12/24 16:11:14;;;;;;;2.37;0.67;;;7.80;99.90;;;;;;4927042;29;20036;-89
2021/12/24 16:13:44;;;;;;;2.40;0.63;;;7.80;99.90;;;;;;4950297;29;20027;-89
2021/12/24 16:16:15;;;;;;;2.87;0.70;;;7.70;99.90;;;;;;4950164;29;20034;-89
2021/12/24 16:18:48;;;;;;;2.80;1.05;;;7.70;99.90;;;;;;4944011;29;20061;-88
2021/12/24 16:21:16;;;;;;;2.93;1.10;;;7.70;99.90;;;;;;4962392;23;21172;-87
2021/12/24 16:23:42;;;;;;;1.47;0.67;;;7.60;99.90;;;;;;4989788;28;20026;-87
2021/12/24 16:26:09;;;;;;;2.80;0.60;;;7.60;99.90;;;;;;4992986;28;20021;-87
2021/12/24 16:28:35;;;;;;;2.00;0.80;;;7.70;99.90;;;;;;4985205;28;20621;-87
2021/12/24 16:31:01;;;;;;;1.00;0.47;;;7.50;99.90;;;;;;4967761;28;20030;-87
2021/12/24 16:33:28;;;;;;;3.17;0.70;;;7.50;99.90;;;;;;4982640;28;20025;-88
2021/12/24 16:35:55;;;;;;;1.10;0.50;;;7.50;99.90;;;;;;4982315;28;20105;-87
2021/12/24 16:38:22;;;;;;;2.90;0.60;;;7.60;99.90;;;;;;4969203;28;20022;-88
2021/12/24 16:40:51;;;;;;;1.90;0.67;;;7.60;99.90;;;;;;4971420;28;20042;-88
2021/12/24 16:43:18;;;;;;;1.90;0.70;;;7.60;99.90;;;;;;4982288;28;20027;-87
2021/12/24 16:45:44;;;;;;;2.07;0.63;;;7.50;99.90;;;;;;4981264;28;20011;-87
2021/12/24 16:48:12;;;;;;;1.67;0.63;;;7.60;99.90;;;;;;4990137;28;20097;-87
2021/12/24 16:50:40;;;;;;;1.53;0.53;;;7.50;99.90;;;;;;4981595;28;20031;-87
2021/12/24 16:53:07;;;;;;;1.93;0.73;;;7.40;99.90;;;;;;4982036;28;20027;-87
2021/12/24 16:55:33;;;;;;;1.40;0.57;;;7.50;99.90;;;;;;4988512;28;20027;-87
2021/12/24 16:58:02;;;;;;;3.17;0.60;;;7.50;99.90;;;;;;4979806;28;20529;-87
2021/12/24 17:00:35;;;;;;;1.57;0.60;;;7.60;99.90;;;;;;4976385;28;20407;-87
2021/12/24 17:03:02;;;;;;;1.60;0.63;;;7.60;99.90;;;;;;4988954;28;20053;-87
2021/12/24 17:05:28;;;;;;;0.93;0.40;;;7.60;99.90;;;;;;4981410;28;20437;-87
2021/12/24 17:07:54;;;;;;;2.50;0.77;;;7.60;99.90;;;;;;4985174;28;20031;-87
2021/12/24 17:10:23;;;;;;;2.60;1.57;;;7.60;99.90;;;;;;4973475;28;20041;-87
2021/12/24 17:12:50;;;;;;;1.77;0.70;;;7.70;99.90;;;;;;4983384;28;20049;-88
2021/12/24 17:15:19;;;;;;;1.60;0.53;;;7.60;99.90;;;;;;4981694;28;20007;-87
2021/12/24 17:17:45;;;;;;;1.80;0.70;;;7.70;99.90;;;;;;4999279;28;20041;-88
2021/12/24 17:20:15;;;;;;;1.67;0.50;;;7.60;99.90;;;;;;4986302;28;20034;-87
2021/12/24 17:22:41;;;;;;;2.07;0.83;;;7.60;99.90;;;;;;4986489;28;20046;-87
2021/12/24 17:25:10;;;;;;;2.23;0.70;;;7.70;99.90;;;;;;4968183;28;20059;-88
2021/12/24 17:27:37;;;;;;;2.53;0.80;;;7.60;99.90;;;;;;4969856;28;20027;-88
2021/12/24 17:30:08;;;;;;;1.60;0.50;;;7.70;99.90;;;;;;4986672;28;20034;-89
2021/12/24 17:32:34;;;;;;;2.17;0.70;;;7.70;99.90;;;;;;4977508;28;20026;-88
2021/12/24 17:34:59;;;;;;;3.17;0.70;;;7.60;99.90;;;;;;4973799;28;20024;-88
2021/12/24 17:37:26;;;;;;;2.40;0.90;;;7.60;99.90;;;;;;4961936;28;20037;-88
2021/12/24 17:39:52;;;;;;;3.43;0.90;;;7.70;99.90;;;;;;4964270;28;20031;-88
2021/12/24 17:42:18;;;;;;;2.40;0.70;;;7.60;99.90;;;;;;4983210;28;20049;-88
2021/12/24 17:44:43;;;;;;;3.73;0.83;;;7.70;99.90;;;;;;4968487;28;20459;-88
2021/12/24 17:47:09;;;;;;;3.50;0.80;;;7.50;99.90;;;;;;4979596;28;20601;-88
2021/12/24 17:49:36;;;;;;;3.27;1.10;;;7.50;99.90;;;;;;4989084;28;20034;-87
2021/12/24 17:52:04;;;;;;;2.47;0.90;;;7.50;99.90;;;;;;4987335;28;20035;-88
2021/12/24 17:54:30;;;;;;;2.00;0.80;;;7.50;99.90;;;;;;4976632;28;20031;-88
2021/12/24 17:56:55;;;;;;;2.97;1.10;;;7.50;99.90;;;;;;4979160;28;20027;-88
2021/12/24 17:59:22;;;;;;;2.87;1.37;;;7.60;99.90;;;;;;4975860;28;20035;-87
2021/12/24 18:01:48;;;;;;;4.47;1.20;;;7.50;99.90;;;;;;4978339;28;20104;-88
2021/12/24 18:04:14;;;;;;;3.13;0.90;;;7.60;99.90;;;;;;4979580;28;20027;-88
2021/12/24 18:06:40;;;;;;;2.63;1.20;;;7.60;99.90;;;;;;4982994;28;20078;-88
2021/12/24 18:09:06;;;;;;;3.80;1.23;;;7.50;99.90;;;;;;4987567;28;20039;-88
2021/12/24 18:11:32;;;;;;;6.50;1.13;;;7.50;99.90;;;;;;4976807;28;20062;-87
2021/12/24 18:13:57;;;;;;;2.67;1.10;;;7.50;99.90;;;;;;4966619;28;20093;-88
2021/12/24 18:16:26;;;;;;;3.83;0.97;;;7.60;99.90;;;;;;4984307;28;20082;-87
2021/12/24 18:18:52;;;;;;;1.87;0.60;;;7.60;99.90;;;;;;4973350;28;20558;-87
2021/12/24 18:21:19;;;;;;;2.13;0.80;;;7.60;99.90;;;;;;4994878;28;20043;-88
2021/12/24 18:23:45;;;;;;;3.20;1.10;;;7.70;99.90;;;;;;4979216;28;20034;-88
2021/12/24 18:26:13;;;;;;;3.57;1.10;;;7.60;99.90;;;;;;4975671;28;20026;-88
2021/12/24 18:28:39;;;;;;;2.10;0.80;;;7.60;99.90;;;;;;4988349;28;20085;-88
2021/12/24 18:31:07;;;;;;;3.33;1.00;;;7.60;99.90;;;;;;4979958;28;20034;-88
2021/12/24 18:33:33;;;;;;;4.07;1.33;;;7.60;99.90;;;;;;4978369;28;20019;-88
2021/12/24 18:35:59;;;;;;;1.87;0.80;;;7.60;99.90;;;;;;4979068;28;20025;-88
2021/12/24 18:38:29;;;;;;;3.53;1.30;;;7.60;99.90;;;;;;4992076;28;20411;-88
2021/12/24 18:40:56;;;;;;;1.83;0.80;;;7.60;99.90;;;;;;4989998;28;20110;-87
2021/12/24 18:43:26;;;;;;;1.60;0.70;;;7.60;99.90;;;;;;4981979;28;20019;-88